Alba, Illinois
Current Conditions -  °F | °C
As of 7:52 PM on Monday 22 Dec 2014 (Local Time) from KMLI Reporting Station
Haze Haze  
Wind Chill: 36°   Ceiling: 400
Heat Index: 41°   Visibility: 3mi
Dew Point: 39°   Wind: 7mph
Humidity: 93%   Direction: 100°E
Pressure: 29.53"   Gusts: NA
Location:  41.4097°N, 90.0293°W
Report Text: KMLI 230152Z 10006KT 3SM BR OVC004 05/04 A2953 RMK AO2 RAB0053E28 SLP003 P0001 T00500039
Loading
Personal Weather Stations






























Interactive Weather Map New forecast layout! Learn more

10-Day Weather Forecast

Advertisements
Track Severe Weather on mobile